createdAt,value
2019-03-20T00:00:29.219Z,2.22
2019-03-20T00:02:57.624Z,2.21
2019-03-20T00:05:26.255Z,2.20
2019-03-20T00:07:54.639Z,2.18
2019-03-20T00:10:23.659Z,2.15
2019-03-20T00:12:52.048Z,2.15
2019-03-20T00:15:20.443Z,2.16
2019-03-20T00:17:48.843Z,2.16
2019-03-20T00:20:17.245Z,2.10
2019-03-20T00:22:45.632Z,2.03
2019-03-20T00:25:14.642Z,1.91
2019-03-20T00:27:43.037Z,1.88
2019-03-20T00:30:14.232Z,1.87
2019-03-20T00:32:42.776Z,1.82
2019-03-20T00:35:11.299Z,1.88
2019-03-20T00:37:39.930Z,1.88
2019-03-20T00:40:13.064Z,1.88
2019-03-20T00:42:41.502Z,1.87
2019-03-20T00:45:14.518Z,1.79
2019-03-20T00:47:42.919Z,1.74
2019-03-20T00:50:18.003Z,1.74
2019-03-20T00:52:46.464Z,1.72
2019-03-20T00:55:16.308Z,1.69
2019-03-20T00:57:45.281Z,1.69
2019-03-20T01:00:16.345Z,1.72
2019-03-20T01:02:45.002Z,1.60
2019-03-20T01:05:14.024Z,1.68
2019-03-20T01:07:42.580Z,1.70
2019-03-20T01:10:16.988Z,1.65
2019-03-20T01:12:45.377Z,1.65
2019-03-20T01:15:14.547Z,1.63
2019-03-20T01:17:43.122Z,1.65
2019-03-20T01:20:22.575Z,1.65
2019-03-20T01:22:51.120Z,1.66
2019-03-20T01:25:20.081Z,1.66
2019-03-20T01:27:48.601Z,1.57
2019-03-20T01:30:29.874Z,1.52
2019-03-20T01:32:58.792Z,1.47
2019-03-20T01:35:27.180Z,1.45
2019-03-20T01:37:55.583Z,1.45
2019-03-20T01:40:23.978Z,1.45
2019-03-20T01:42:52.360Z,1.47
2019-03-20T01:45:20.770Z,1.47
2019-03-20T01:47:49.221Z,1.44
2019-03-20T01:50:17.848Z,1.38
2019-03-20T01:52:46.496Z,1.34
2019-03-20T01:55:14.883Z,1.38
2019-03-20T01:57:43.266Z,1.33
2019-03-20T02:00:12.213Z,1.35
2019-03-20T02:02:40.843Z,1.37
2019-03-20T02:05:09.300Z,1.44
2019-03-20T02:07:37.937Z,1.42
2019-03-20T02:10:09.332Z,1.43
2019-03-20T02:12:37.720Z,1.45
2019-03-20T02:15:14.056Z,1.49
2019-03-20T02:17:42.439Z,1.48
2019-03-20T02:20:15.636Z,1.47
2019-03-20T02:22:44.104Z,1.44
2019-03-20T02:25:13.627Z,1.40
2019-03-20T02:27:42.086Z,1.37
2019-03-20T02:30:18.410Z,1.37
2019-03-20T02:32:46.848Z,1.48
2019-03-20T02:35:15.322Z,1.54
2019-03-20T02:37:43.937Z,1.52
2019-03-20T02:40:14.098Z,1.47
2019-03-20T02:42:42.804Z,1.35
2019-03-20T02:45:13.767Z,1.34
2019-03-20T02:47:42.261Z,1.34
2019-03-20T02:50:11.930Z,1.25
2019-03-20T02:52:40.314Z,1.15
2019-03-20T02:55:10.544Z,1.20
2019-03-20T02:57:39.172Z,1.19
2019-03-20T03:00:10.698Z,1.17
2019-03-20T03:02:39.082Z,1.17
2019-03-20T03:05:08.489Z,1.11
2019-03-20T03:07:37.117Z,1.15
2019-03-20T03:10:11.491Z,1.06
2019-03-20T03:12:40.197Z,1.08
2019-03-20T03:15:10.447Z,1.02
2019-03-20T03:17:38.903Z,1.10
2019-03-20T03:20:11.451Z,1.10
2019-03-20T03:22:40.089Z,1.11
2019-03-20T03:25:10.349Z,1.14
2019-03-20T03:27:38.747Z,1.07
2019-03-20T03:30:17.196Z,1.01
2019-03-20T03:32:46.390Z,1.01
2019-03-20T03:35:17.704Z,0.96
2019-03-20T03:37:45.713Z,0.81
2019-03-20T03:40:15.764Z,0.73
2019-03-20T03:42:44.227Z,0.71
2019-03-20T03:45:14.288Z,0.73
2019-03-20T03:47:42.690Z,0.65
2019-03-20T03:50:11.504Z,0.55
2019-03-20T03:52:40.165Z,0.53
2019-03-20T03:55:09.775Z,0.53
2019-03-20T03:57:38.501Z,0.61
2019-03-20T04:00:09.986Z,0.52
2019-03-20T04:02:38.348Z,0.46
2019-03-20T04:05:07.038Z,0.50
2019-03-20T04:07:35.494Z,0.47
2019-03-20T04:10:05.617Z,0.47
2019-03-20T04:12:34.005Z,0.49
2019-03-20T04:15:02.478Z,0.46
2019-03-20T04:17:30.867Z,0.43
2019-03-20T04:19:59.491Z,0.41
2019-03-20T04:22:28.137Z,0.31
2019-03-20T04:24:56.520Z,0.24
2019-03-20T04:27:24.995Z,0.19
2019-03-20T04:29:53.690Z,0.23
2019-03-20T04:32:22.306Z,0.32
2019-03-20T04:34:50.712Z,0.33
2019-03-20T04:37:19.335Z,0.27
2019-03-20T04:39:47.720Z,0.22
2019-03-20T04:42:16.126Z,0.35
2019-03-20T04:44:44.744Z,0.39
2019-03-20T04:47:13.381Z,0.38
2019-03-20T04:49:42.003Z,0.36
2019-03-20T04:52:10.396Z,0.38
2019-03-20T04:54:38.791Z,0.32
2019-03-20T04:57:07.236Z,0.33
2019-03-20T04:59:35.617Z,0.32
2019-03-20T05:02:04.026Z,0.32
2019-03-20T05:04:32.404Z,0.28
2019-03-20T05:07:00.849Z,0.28
2019-03-20T05:09:29.490Z,0.21
2019-03-20T05:11:58.119Z,0.18
2019-03-20T05:14:26.500Z,0.17
2019-03-20T05:16:54.901Z,0.14
2019-03-20T05:19:23.287Z,0.14
2019-03-20T05:21:51.679Z,0.28
2019-03-20T05:24:20.079Z,0.24
2019-03-20T05:26:48.466Z,0.22
2019-03-20T05:29:16.851Z,0.23
2019-03-20T05:31:45.251Z,0.29
2019-03-20T05:34:13.876Z,0.40
2019-03-20T05:36:42.513Z,0.45
2019-03-20T05:39:10.960Z,0.39
2019-03-20T05:41:39.585Z,0.42
2019-03-20T05:44:07.988Z,0.48
2019-03-20T05:46:36.375Z,0.49
2019-03-20T05:49:04.883Z,0.55
2019-03-20T05:51:33.530Z,0.59
2019-03-20T05:54:01.946Z,0.75
2019-03-20T05:56:30.582Z,0.78
2019-03-20T05:58:58.979Z,0.79
2019-03-20T06:01:27.367Z,0.84
2019-03-20T06:03:56.014Z,0.87
2019-03-20T06:06:24.641Z,1.01
2019-03-20T06:08:53.275Z,1.18
2019-03-20T06:11:21.727Z,1.32
2019-03-20T06:13:50.347Z,1.35
2019-03-20T06:16:18.732Z,1.38
2019-03-20T06:18:47.367Z,1.50
2019-03-20T06:21:16.000Z,1.50
2019-03-20T06:23:44.635Z,1.50
2019-03-20T06:26:13.022Z,1.46
2019-03-20T06:28:41.682Z,1.57
2019-03-20T06:31:10.347Z,1.59
2019-03-20T06:33:38.988Z,1.46
2019-03-20T06:36:07.616Z,1.54
2019-03-20T06:38:36.015Z,1.62
2019-03-20T06:41:04.407Z,1.67
2019-03-20T06:43:33.042Z,1.85
2019-03-20T06:46:01.668Z,1.85
2019-03-20T06:48:30.062Z,1.79
2019-03-20T06:50:58.467Z,1.87
2019-03-20T06:53:26.852Z,1.92
2019-03-20T06:55:55.478Z,1.86
2019-03-20T06:58:24.114Z,2.11
2019-03-20T07:00:58.544Z,2.11
2019-03-20T07:03:42.137Z,2.27
2019-03-20T07:06:16.713Z,2.37
2019-03-20T07:09:10.414Z,2.26
2019-03-20T07:11:40.347Z,2.49
2019-03-20T07:14:08.745Z,2.62
2019-03-20T07:16:37.387Z,2.63
2019-03-20T07:19:06.087Z,2.79
2019-03-20T07:21:34.473Z,2.64
2019-03-20T07:24:03.117Z,2.84
2019-03-20T07:26:31.743Z,2.98
2019-03-20T07:29:00.190Z,2.96
2019-03-20T07:31:28.585Z,2.99
2019-03-20T07:33:57.028Z,2.93
2019-03-20T07:36:25.724Z,2.99
2019-03-20T07:38:54.128Z,3.17
2019-03-20T07:41:22.517Z,3.28
2019-03-20T07:43:50.912Z,3.26
2019-03-20T07:46:19.297Z,3.19
2019-03-20T07:48:47.935Z,3.36
2019-03-20T07:51:16.382Z,3.53
2019-03-20T07:53:45.005Z,3.56
2019-03-20T07:56:13.699Z,3.53
2019-03-20T07:58:42.105Z,3.67
2019-03-20T08:01:10.553Z,3.77
2019-03-20T08:03:38.940Z,3.77
2019-03-20T08:06:07.582Z,3.90
2019-03-20T08:08:35.971Z,4.14
2019-03-20T08:11:04.436Z,4.06
2019-03-20T08:13:33.073Z,3.98
2019-03-20T08:16:03.893Z,4.40
2019-03-20T08:18:31.835Z,4.40
2019-03-20T08:21:00.464Z,4.02
2019-03-20T08:23:28.857Z,4.28
2019-03-20T08:25:57.264Z,4.68
2019-03-20T08:28:25.651Z,4.77
2019-03-20T08:30:54.289Z,4.68
2019-03-20T08:33:22.692Z,4.81
2019-03-20T08:35:51.084Z,5.23
2019-03-20T08:38:19.730Z,5.09
2019-03-20T08:40:48.354Z,5.16
2019-03-20T08:43:16.982Z,5.22
2019-03-20T08:45:45.454Z,5.30
2019-03-20T08:48:14.090Z,5.28
2019-03-20T08:50:42.719Z,5.46
2019-03-20T08:53:11.360Z,5.63
2019-03-20T08:55:39.759Z,5.88
2019-03-20T08:58:08.153Z,5.94
2019-03-20T09:00:36.574Z,5.98
2019-03-20T09:03:05.258Z,6.02
2019-03-20T09:05:33.655Z,5.92
2019-03-20T09:08:02.054Z,6.32
2019-03-20T09:10:30.707Z,6.67
2019-03-20T09:12:59.162Z,6.51
2019-03-20T09:15:27.559Z,6.43
2019-03-20T09:17:55.939Z,6.36
2019-03-20T09:20:25.093Z,6.44
2019-03-20T09:22:53.491Z,6.73
2019-03-20T09:25:26.644Z,6.79
2019-03-20T09:27:55.110Z,7.12
2019-03-20T09:30:24.630Z,7.12
2019-03-20T09:32:53.148Z,7.24
2019-03-20T09:35:22.035Z,7.46
2019-03-20T09:37:52.198Z,7.44
2019-03-20T09:40:28.436Z,7.68
2019-03-20T09:42:56.816Z,7.76
2019-03-20T09:45:25.565Z,8.00
2019-03-20T09:47:53.969Z,8.11
2019-03-20T09:50:24.355Z,8.02
2019-03-20T09:52:52.871Z,7.78
2019-03-20T09:55:21.580Z,8.19
2019-03-20T09:57:50.044Z,8.43
2019-03-20T10:00:25.547Z,8.45
2019-03-20T10:02:54.425Z,8.54
2019-03-20T10:05:22.932Z,8.46
2019-03-20T10:07:51.645Z,8.49
2019-03-20T10:10:30.578Z,8.67
2019-03-20T10:12:58.978Z,8.61
2019-03-20T10:15:31.598Z,8.87
2019-03-20T10:18:00.165Z,9.18
2019-03-20T10:20:28.615Z,9.15
2019-03-20T10:22:57.236Z,9.04
2019-03-20T10:25:25.925Z,9.26
2019-03-20T10:27:54.500Z,9.27
2019-03-20T10:30:26.916Z,9.33
2019-03-20T10:32:55.293Z,9.43
2019-03-20T10:35:23.682Z,9.61
2019-03-20T10:37:52.123Z,9.71
2019-03-20T10:40:22.622Z,9.27
2019-03-20T10:42:51.088Z,9.52
2019-03-20T10:45:20.308Z,9.38
2019-03-20T10:47:49.019Z,9.49
2019-03-20T10:50:21.427Z,9.51
2019-03-20T10:52:50.089Z,9.50
2019-03-20T10:55:18.691Z,9.22
2019-03-20T10:57:47.223Z,9.24
2019-03-20T11:00:23.300Z,9.47
2019-03-20T11:02:51.689Z,9.12
2019-03-20T11:05:20.143Z,9.42
2019-03-20T11:07:48.755Z,9.61
2019-03-20T11:10:22.211Z,9.93
2019-03-20T11:12:50.898Z,9.92
2019-03-20T11:15:20.507Z,9.97
2019-03-20T11:17:49.130Z,9.91
2019-03-20T11:20:18.645Z,9.89
2019-03-20T11:22:47.407Z,9.95
2019-03-20T11:25:23.211Z,9.69
2019-03-20T11:27:51.839Z,9.91
2019-03-20T11:30:27.186Z,9.61
2019-03-20T11:32:55.822Z,9.52
2019-03-20T11:35:24.519Z,9.61
2019-03-20T11:37:53.273Z,9.50
2019-03-20T11:40:35.322Z,9.51
2019-03-20T11:43:03.959Z,9.86
2019-03-20T11:45:32.403Z,9.96
2019-03-20T11:48:00.785Z,9.60
2019-03-20T11:50:40.401Z,9.65
2019-03-20T11:53:09.316Z,9.44
2019-03-20T11:55:38.048Z,9.68
2019-03-20T11:58:07.261Z,9.46
2019-03-20T12:00:35.640Z,9.59
2019-03-20T12:03:04.490Z,10.06
2019-03-20T12:05:32.882Z,9.77
2019-03-20T12:08:01.257Z,9.68
2019-03-20T12:10:30.777Z,9.98
2019-03-20T12:12:59.475Z,10.10
2019-03-20T12:15:28.163Z,9.97
2019-03-20T12:17:56.791Z,10.12
2019-03-20T12:20:25.875Z,9.93
2019-03-20T12:22:54.549Z,9.52
2019-03-20T12:25:36.188Z,9.64
2019-03-20T12:28:05.040Z,9.82
2019-03-20T12:30:35.598Z,9.64
2019-03-20T12:33:04.261Z,9.76
2019-03-20T12:35:36.710Z,9.94
2019-03-20T12:38:14.343Z,9.81
2019-03-20T12:40:36.439Z,9.80
2019-03-20T12:43:05.604Z,10.03
2019-03-20T12:45:38.891Z,10.01
2019-03-20T12:48:08.455Z,9.94
2019-03-20T12:50:36.889Z,10.04
2019-03-20T12:53:07.790Z,10.23
2019-03-20T12:55:36.422Z,10.10
2019-03-20T12:58:04.947Z,10.05
2019-03-20T13:00:33.646Z,10.45
2019-03-20T13:03:02.028Z,10.19
2019-03-20T13:05:30.423Z,10.28
2019-03-20T13:08:05.492Z,10.10
2019-03-20T13:10:28.988Z,10.27
2019-03-20T13:12:57.627Z,10.59
2019-03-20T13:15:27.306Z,10.84
2019-03-20T13:17:56.528Z,10.52
2019-03-20T13:20:25.158Z,10.65
2019-03-20T13:23:11.592Z,10.65
2019-03-20T13:25:39.983Z,10.59
2019-03-20T13:28:08.604Z,10.73
2019-03-20T13:30:45.586Z,10.67
2019-03-20T13:33:24.950Z,10.78
2019-03-20T13:35:44.546Z,10.83
2019-03-20T13:38:13.174Z,10.61
2019-03-20T13:40:41.628Z,10.76
2019-03-20T13:43:10.027Z,10.91
2019-03-20T13:45:38.412Z,10.70
2019-03-20T13:48:06.791Z,10.89
2019-03-20T13:50:35.245Z,10.99
2019-03-20T13:53:03.623Z,11.05
2019-03-20T13:55:32.258Z,10.94
2019-03-20T13:58:00.710Z,11.09
2019-03-20T14:00:29.165Z,11.03
2019-03-20T14:02:57.799Z,11.09
2019-03-20T14:05:26.414Z,11.02
2019-03-20T14:07:54.869Z,11.03
2019-03-20T14:10:28.207Z,10.99
2019-03-20T14:12:56.821Z,11.09
2019-03-20T14:15:25.283Z,11.18
2019-03-20T14:17:53.713Z,11.27
2019-03-20T14:20:29.016Z,11.33
2019-03-20T14:22:57.412Z,10.95
2019-03-20T14:25:25.934Z,11.13
2019-03-20T14:27:54.398Z,11.00
2019-03-20T14:30:28.162Z,11.08
2019-03-20T14:32:56.623Z,10.88
2019-03-20T14:35:25.074Z,11.01
2019-03-20T14:37:53.581Z,10.96
2019-03-20T14:40:37.127Z,11.04
2019-03-20T14:43:00.375Z,11.01
2019-03-20T14:45:29.068Z,11.11
2019-03-20T14:47:57.686Z,11.18
2019-03-20T14:50:26.939Z,11.24
2019-03-20T14:52:55.646Z,11.14
2019-03-20T14:55:24.301Z,11.17
2019-03-20T14:57:52.699Z,11.28
2019-03-20T15:00:26.150Z,10.93
2019-03-20T15:02:54.917Z,11.16
2019-03-20T15:05:23.425Z,11.15
2019-03-20T15:07:51.818Z,11.13
2019-03-20T15:10:24.930Z,11.22
2019-03-20T15:12:54.010Z,11.24
2019-03-20T15:15:27.940Z,11.18
2019-03-20T15:17:56.576Z,11.21
2019-03-20T15:20:25.178Z,11.28
2019-03-20T15:22:53.573Z,11.11
2019-03-20T15:25:22.188Z,11.27
2019-03-20T15:27:50.819Z,11.31
2019-03-20T15:30:24.084Z,11.16
2019-03-20T15:32:52.698Z,11.18
2019-03-20T15:35:21.326Z,11.11
2019-03-20T15:37:49.943Z,11.06
2019-03-20T15:40:22.705Z,11.23
2019-03-20T15:42:51.089Z,11.01
2019-03-20T15:45:19.806Z,11.08
2019-03-20T15:47:48.204Z,11.13
2019-03-20T15:50:27.250Z,11.36
2019-03-20T15:52:55.932Z,11.15
2019-03-20T15:55:34.767Z,11.31
2019-03-20T15:58:03.415Z,11.39
2019-03-20T16:00:31.877Z,11.44
2019-03-20T16:03:09.043Z,11.41
2019-03-20T16:05:37.679Z,11.36
2019-03-20T16:08:06.375Z,11.34
2019-03-20T16:10:34.901Z,11.33
2019-03-20T16:13:03.347Z,11.38
2019-03-20T16:15:31.919Z,11.22
2019-03-20T16:18:00.300Z,11.20
2019-03-20T16:20:28.935Z,11.17
2019-03-20T16:22:57.315Z,11.17
2019-03-20T16:25:25.870Z,11.07
2019-03-20T16:27:54.258Z,11.06
2019-03-20T16:30:26.925Z,11.02
2019-03-20T16:32:56.519Z,10.99
2019-03-20T16:35:24.995Z,10.96
2019-03-20T16:37:53.620Z,10.94
2019-03-20T16:40:32.374Z,10.85
2019-03-20T16:43:00.831Z,10.82
2019-03-20T16:45:32.940Z,10.80
2019-03-20T16:48:01.318Z,10.72
2019-03-20T16:50:29.820Z,10.57
2019-03-20T16:52:58.455Z,10.58
2019-03-20T16:55:27.230Z,10.60
2019-03-20T16:57:55.861Z,10.65
2019-03-20T17:00:29.555Z,10.63
2019-03-20T17:02:58.020Z,10.61
2019-03-20T17:05:27.570Z,10.45
2019-03-20T17:07:56.391Z,10.52
2019-03-20T17:10:26.835Z,10.46
2019-03-20T17:12:55.458Z,10.42
2019-03-20T17:15:26.321Z,10.32
2019-03-20T17:17:54.958Z,10.32
2019-03-20T17:20:23.711Z,10.20
2019-03-20T17:22:52.343Z,10.16
2019-03-20T17:25:20.730Z,10.25
2019-03-20T17:27:49.362Z,10.15
2019-03-20T17:30:22.763Z,10.00
2019-03-20T17:32:51.383Z,9.87
2019-03-20T17:35:19.843Z,9.78
2019-03-20T17:37:48.221Z,9.70
2019-03-20T17:40:26.979Z,9.68
2019-03-20T17:42:55.591Z,9.55
2019-03-20T17:45:28.469Z,9.53
2019-03-20T17:47:57.149Z,9.56
2019-03-20T17:50:30.471Z,9.48
2019-03-20T17:52:58.839Z,9.36
2019-03-20T17:55:27.554Z,9.37
2019-03-20T17:57:56.426Z,9.45
2019-03-20T18:00:36.689Z,9.31
2019-03-20T18:03:06.215Z,9.22
2019-03-20T18:05:34.995Z,9.18
2019-03-20T18:08:03.738Z,9.15
2019-03-20T18:10:33.245Z,9.07
2019-03-20T18:13:01.853Z,8.96
2019-03-20T18:15:30.513Z,8.92
2019-03-20T18:17:58.987Z,8.79
2019-03-20T18:20:27.360Z,8.76
2019-03-20T18:22:55.738Z,8.74
2019-03-20T18:25:24.130Z,8.61
2019-03-20T18:27:52.745Z,8.60
2019-03-20T18:30:23.226Z,8.68
2019-03-20T18:32:51.685Z,8.55
2019-03-20T18:35:20.297Z,8.68
2019-03-20T18:37:48.921Z,8.61
2019-03-20T18:40:18.853Z,8.43
2019-03-20T18:42:47.236Z,8.31
2019-03-20T18:45:21.336Z,8.48
2019-03-20T18:47:49.806Z,8.37
2019-03-20T18:50:19.361Z,8.36
2019-03-20T18:52:48.270Z,8.28
2019-03-20T18:55:17.937Z,8.05
2019-03-20T18:57:46.632Z,8.04
2019-03-20T19:00:29.729Z,8.00
2019-03-20T19:03:03.732Z,8.04
2019-03-20T19:05:54.624Z,7.97
2019-03-20T19:08:23.415Z,8.08
2019-03-20T19:10:51.945Z,8.00
2019-03-20T19:13:20.643Z,7.94
2019-03-20T19:15:49.984Z,7.92
2019-03-20T19:18:18.410Z,7.77
2019-03-20T19:20:46.792Z,7.69
2019-03-20T19:23:15.409Z,7.46
2019-03-20T19:25:43.779Z,7.29
2019-03-20T19:28:12.483Z,7.09
2019-03-20T19:30:41.100Z,7.00
2019-03-20T19:33:09.478Z,6.93
2019-03-20T19:35:38.113Z,6.80
2019-03-20T19:38:06.507Z,6.73
2019-03-20T19:40:34.882Z,6.63
2019-03-20T19:43:03.288Z,6.59
2019-03-20T19:45:31.897Z,6.54
2019-03-20T19:48:00.517Z,6.49
2019-03-20T19:50:29.160Z,6.54
2019-03-20T19:53:00.139Z,6.48
2019-03-20T19:55:30.325Z,6.39
2019-03-20T19:57:58.960Z,6.19
2019-03-20T20:00:28.337Z,6.42
2019-03-20T20:02:56.716Z,6.30
2019-03-20T20:05:25.359Z,6.30
2019-03-20T20:07:53.978Z,6.33
2019-03-20T20:10:22.610Z,6.30
2019-03-20T20:12:51.238Z,6.28
2019-03-20T20:15:28.733Z,6.34
2019-03-20T20:17:57.348Z,6.25
2019-03-20T20:20:36.786Z,6.14
2019-03-20T20:23:05.172Z,6.07
2019-03-20T20:25:33.835Z,6.07
2019-03-20T20:28:02.410Z,6.04
2019-03-20T20:30:31.298Z,5.98
2019-03-20T20:32:59.958Z,5.96
2019-03-20T20:35:28.684Z,5.84
2019-03-20T20:37:57.039Z,5.91
2019-03-20T20:40:30.442Z,5.80
2019-03-20T20:43:00.011Z,5.74
2019-03-20T20:45:28.575Z,5.74
2019-03-20T20:47:57.198Z,5.74
2019-03-20T20:50:26.235Z,5.66
2019-03-20T20:52:55.305Z,5.63
2019-03-20T20:55:24.744Z,5.56
2019-03-20T20:57:54.829Z,5.51
2019-03-20T21:00:25.182Z,5.42
2019-03-20T21:02:54.023Z,5.40
2019-03-20T21:05:22.660Z,5.29
2019-03-20T21:07:51.289Z,5.21
2019-03-20T21:10:26.144Z,5.19
2019-03-20T21:12:57.358Z,5.19
2019-03-20T21:15:34.173Z,5.09
2019-03-20T21:18:33.848Z,5.11
2019-03-20T21:21:02.350Z,5.08
2019-03-20T21:23:59.095Z,5.02
2019-03-20T21:26:30.512Z,5.00
2019-03-20T21:29:24.294Z,4.94
2019-03-20T21:32:05.754Z,4.92
2019-03-20T21:34:53.495Z,4.95
2019-03-20T21:37:41.447Z,4.88
2019-03-20T21:40:11.576Z,4.75
2019-03-20T21:43:07.272Z,4.79
2019-03-20T21:45:57.040Z,4.70
2019-03-20T21:48:25.503Z,4.63
2019-03-20T21:50:59.715Z,4.58
2019-03-20T21:53:56.784Z,4.63
2019-03-20T21:56:37.131Z,4.59
2019-03-20T21:59:34.175Z,4.61
2019-03-20T22:02:14.725Z,4.58
2019-03-20T22:04:43.133Z,4.58
2019-03-20T22:07:12.671Z,4.50
2019-03-20T22:09:56.137Z,4.45
2019-03-20T22:12:42.537Z,4.42
2019-03-20T22:15:22.900Z,4.40
2019-03-20T22:18:03.174Z,4.28
2019-03-20T22:20:37.706Z,4.26
2019-03-20T22:23:12.150Z,4.17
2019-03-20T22:26:12.241Z,4.13
2019-03-20T22:28:52.287Z,4.10
2019-03-20T22:31:21.337Z,4.18
2019-03-20T22:34:24.669Z,4.11
2019-03-20T22:36:54.243Z,4.08
2019-03-20T22:39:56.806Z,4.03
2019-03-20T22:42:50.692Z,3.98
2019-03-20T22:45:41.759Z,3.97
2019-03-20T22:48:28.123Z,3.90
2019-03-20T22:51:19.300Z,3.85
2019-03-20T22:54:08.707Z,3.81
2019-03-20T22:56:52.014Z,3.79
2019-03-20T22:59:20.420Z,3.67
2019-03-20T23:02:06.456Z,3.64
2019-03-20T23:04:38.004Z,3.65
2019-03-20T23:07:06.632Z,3.64
2019-03-20T23:09:35.018Z,3.59
2019-03-20T23:12:06.262Z,3.54
2019-03-20T23:14:34.660Z,3.51
2019-03-20T23:17:03.279Z,3.46
2019-03-20T23:19:31.931Z,3.45
2019-03-20T23:22:00.315Z,3.38
2019-03-20T23:24:28.706Z,3.33
2019-03-20T23:26:58.550Z,3.33
2019-03-20T23:29:26.935Z,3.33
2019-03-20T23:31:55.323Z,3.29
2019-03-20T23:34:23.726Z,3.25
2019-03-20T23:36:52.113Z,3.24
2019-03-20T23:39:20.735Z,3.23
2019-03-20T23:41:49.195Z,3.25
2019-03-20T23:44:17.831Z,3.22
2019-03-20T23:46:46.223Z,3.23
2019-03-20T23:49:17.610Z,3.23
2019-03-20T23:51:46.002Z,3.23
2019-03-20T23:54:16.225Z,3.16
2019-03-20T23:56:44.630Z,3.08
2019-03-20T23:59:13.020Z,3.09
